Time;durP1;ratioP1;P1;durP2;ratioP2;P2;SDS_P1;SDS_P2;PMS_P1;PMS_P2;Temp;Humidity;BMP_temperature;BMP_pressure;BME280_temperature;BME280_humidity;BME280_pressure;Samples;Min_cycle;Max_cycle;Signal;HPM_P1;HPM_P2
2022/11/24 00:01:15;;;;;;;;;;;;;;;6.28;100.00;100187.03;4992966;28;19951;-60
2022/11/24 00:03:40;;;;;;;;;;;;;;;6.32;100.00;100188.06;4993867;28;19979;-60
2022/11/24 00:06:07;;;;;;;;;;;;;;;6.31;100.00;100190.00;4993383;28;19952;-60
2022/11/24 00:08:33;;;;;;;;;;;;;;;6.33;100.00;100195.19;4993211;28;19972;-60
2022/11/24 00:11:03;;;;;;;;;;;;;;;6.28;100.00;100198.00;4993428;28;19913;-60
2022/11/24 00:13:28;;;;;;;;;;;;;;;6.29;100.00;100199.63;4992853;28;19917;-60
2022/11/24 00:15:53;;;;;;;;;;;;;;;6.26;100.00;100197.47;4992899;28;20365;-62
2022/11/24 00:18:18;;;;;;;;;;;;;;;6.22;100.00;100200.00;4992884;28;19941;-60
2022/11/24 00:20:50;;;;;;;;;;;;;;;6.22;100.00;100200.00;4992519;28;20070;-58
2022/11/24 00:23:15;;;;;;;;;;;;;;;6.19;100.00;100200.56;4992693;28;19913;-58
2022/11/24 00:25:41;;;;;;;;;;;;;;;6.20;100.00;100210.44;4991082;28;19983;-60
2022/11/24 00:28:06;;;;;;;;;;;;;;;6.20;100.00;100214.00;4990788;28;20004;-60
2022/11/24 00:30:32;;;;;;;;;;;;;;;6.18;100.00;100213.50;4992714;28;19949;-59
2022/11/24 00:32:57;;;;;;;;;;;;;;;6.19;100.00;100208.81;4992347;28;20265;-60
2022/11/24 00:35:22;;;;;;;;;;;;;;;6.17;100.00;100208.28;4992452;28;19952;-58
2022/11/24 00:37:47;;;;;;;;;;;;;;;6.18;100.00;100215.41;4992413;28;20542;-60
2022/11/24 00:40:13;;;;;;;;;;;;;;;6.20;100.00;100219.50;4992941;28;20392;-59
2022/11/24 00:42:38;;;;;;;;;;;;;;;6.28;100.00;100217.22;4992743;28;20393;-59
2022/11/24 00:45:03;;;;;;;;;;;;;;;6.24;100.00;100206.81;4992533;28;20297;-59
2022/11/24 00:47:31;;;;;;;;;;;;;;;6.30;100.00;100215.81;4992454;28;20368;-60
2022/11/24 00:49:56;;;;;;;;;;;;;;;6.31;100.00;100217.47;4992008;28;20389;-60
2022/11/24 00:52:22;;;;;;;;;;;;;;;6.30;100.00;100218.56;4992442;28;20362;-61
2022/11/24 00:54:47;;;;;;;;;;;;;;;6.32;100.00;100219.09;4992560;28;20396;-59
2022/11/24 00:57:12;;;;;;;;;;;;;;;6.29;100.00;100225.16;4992556;28;19914;-59
2022/11/24 00:59:38;;;;;;;;;;;;;;;6.27;100.00;100224.63;4992801;28;19918;-60
2022/11/24 01:02:03;;;;;;;;;;;;;;;6.24;100.00;100220.56;4992555;28;19913;-59
2022/11/24 01:04:28;;;;;;;;;;;;;;;6.21;100.00;100232.13;4992531;28;19913;-60
2022/11/24 01:06:53;;;;;;;;;;;;;;;6.20;100.00;100229.69;4992457;28;19914;-60
2022/11/24 01:09:18;;;;;;;;;;;;;;;6.18;100.00;100229.97;4992302;28;19914;-62
2022/11/24 01:12:02;;;;;;;;;;;;;;;6.18;100.00;100237.38;4991830;28;19920;-60
2022/11/24 01:14:29;;;;;;;;;;;;;;;6.24;100.00;100244.44;4992404;28;19917;-60
2022/11/24 01:16:54;;;;;;;;;;;;;;;6.19;100.00;100242.56;4992312;28;20342;-60
2022/11/24 01:19:19;;;;;;;;;;;;;;;6.15;100.00;100244.28;4992333;28;19917;-60
2022/11/24 01:21:45;;;;;;;;;;;;;;;6.16;100.00;100243.19;4989448;28;19914;-60
2022/11/24 01:24:10;;;;;;;;;;;;;;;6.14;100.00;100253.63;4992145;28;19922;-60
2022/11/24 01:26:36;;;;;;;;;;;;;;;6.12;100.00;100249.53;4992388;28;20381;-62
2022/11/24 01:29:01;;;;;;;;;;;;;;;6.19;100.00;100250.00;4992365;28;19921;-61
2022/11/24 01:31:27;;;;;;;;;;;;;;;6.21;100.00;100247.78;5007062;28;19914;-60
2022/11/24 01:33:52;;;;;;;;;;;;;;;6.21;100.00;100245.84;4991797;28;20086;-60
2022/11/24 01:36:18;;;;;;;;;;;;;;;6.24;100.00;100249.94;4992440;28;20359;-61
2022/11/24 01:38:43;;;;;;;;;;;;;;;6.23;100.00;100256.56;4995744;28;20024;-60
2022/11/24 01:41:08;;;;;;;;;;;;;;;6.21;100.00;100251.34;4995594;28;19969;-60
2022/11/24 01:43:34;;;;;;;;;;;;;;;6.21;100.00;100256.03;4995506;28;19918;-60
2022/11/24 01:46:05;;;;;;;;;;;;;;;6.20;100.00;100259.88;4995743;28;19944;-60
2022/11/24 01:48:35;;;;;;;;;;;;;;;6.17;100.00;100264.03;4995585;28;19914;-60
2022/11/24 01:51:10;;;;;;;;;;;;;;;6.14;100.00;100267.34;4995828;28;19921;-60
2022/11/24 01:53:36;;;;;;;;;;;;;;;6.14;100.00;100270.09;4995506;28;20274;-60
2022/11/24 01:56:02;;;;;;;;;;;;;;;6.10;100.00;100277.28;4995560;28;19971;-60
2022/11/24 01:58:30;;;;;;;;;;;;;;;6.10;100.00;100280.03;4995480;28;20268;-60
2022/11/24 02:00:55;;;;;;;;;;;;;;;6.20;100.00;100279.91;4995290;28;19925;-60
2022/11/24 02:03:23;;;;;;;;;;;;;;;6.14;100.00;100280.28;4995234;28;19917;-61
2022/11/24 02:06:01;;;;;;;;;;;;;;;6.14;100.00;100283.84;4995345;28;19918;-59
2022/11/24 02:08:42;;;;;;;;;;;;;;;6.15;100.00;100277.25;4995533;28;19960;-60
2022/11/24 02:11:08;;;;;;;;;;;;;;;6.20;100.00;100281.84;4995139;28;19913;-60
2022/11/24 02:13:34;;;;;;;;;;;;;;;6.21;100.00;100281.56;4995287;28;19917;-59
2022/11/24 02:16:00;;;;;;;;;;;;;;;6.23;100.00;100286.78;4994523;28;19914;-61
2022/11/24 02:18:26;;;;;;;;;;;;;;;6.24;100.00;100294.72;4993961;28;19929;-61
2022/11/24 02:20:51;;;;;;;;;;;;;;;6.26;100.00;100297.16;4994815;28;20258;-60
2022/11/24 02:23:19;;;;;;;;;;;;;;;6.24;100.00;100299.38;4995177;28;20301;-60
2022/11/24 02:26:01;;;;;;;;;;;;;;;6.26;100.00;100297.16;4995183;28;19960;-59
2022/11/24 02:28:29;;;;;;;;;;;;;;;6.20;100.00;100295.59;4995144;28;19917;-59
2022/11/24 02:30:54;;;;;;;;;;;;;;;6.17;100.00;100301.66;4995381;28;19921;-59
2022/11/24 02:33:21;;;;;;;;;;;;;;;6.13;100.00;100297.88;4995187;28;20297;-59
2022/11/24 02:35:46;;;;;;;;;;;;;;;6.08;100.00;100304.22;4995202;28;19918;-59
2022/11/24 02:38:12;;;;;;;;;;;;;;;6.08;100.00;100299.53;4995502;28;19925;-60
2022/11/24 02:40:38;;;;;;;;;;;;;;;6.05;100.00;100302.06;4995556;28;19917;-59
2022/11/24 02:43:06;;;;;;;;;;;;;;;6.03;100.00;100302.34;4995251;28;19920;-59
2022/11/24 02:45:32;;;;;;;;;;;;;;;6.00;100.00;100307.59;4995226;28;19922;-60
2022/11/24 02:47:57;;;;;;;;;;;;;;;6.01;100.00;100306.47;4995025;28;19984;-59
2022/11/24 02:50:22;;;;;;;;;;;;;;;5.99;100.00;100311.44;4995208;28;20357;-60
2022/11/24 02:52:48;;;;;;;;;;;;;;;5.95;100.00;100316.69;4994907;28;20417;-62
2022/11/24 02:55:13;;;;;;;;;;;;;;;5.97;100.00;100311.69;4994669;28;19922;-59
2022/11/24 02:57:38;;;;;;;;;;;;;;;5.98;100.00;100309.78;4995040;28;20369;-59
2022/11/24 03:00:04;;;;;;;;;;;;;;;5.99;100.00;100311.44;4994358;28;20372;-59
2022/11/24 03:02:29;;;;;;;;;;;;;;;6.00;100.00;100305.66;4994140;28;20401;-60
2022/11/24 03:04:54;;;;;;;;;;;;;;;6.06;100.00;100317.44;4993510;28;19914;-60
2022/11/24 03:07:19;;;;;;;;;;;;;;;6.08;100.00;100312.47;4993852;28;19953;-60
2022/11/24 03:09:45;;;;;;;;;;;;;;;6.14;100.00;100310.50;4994519;28;19914;-60
2022/11/24 03:12:10;;;;;;;;;;;;;;;6.18;100.00;100315.13;4991460;28;19922;-60
2022/11/24 03:14:35;;;;;;;;;;;;;;;6.21;100.00;100314.53;4994362;28;19913;-59
2022/11/24 03:17:00;;;;;;;;;;;;;;;6.33;100.00;100327.84;4994132;28;20357;-60
2022/11/24 03:19:26;;;;;;;;;;;;;;;6.39;100.00;100318.47;4993839;28;19921;-60
2022/11/24 03:21:51;;;;;;;;;;;;;;;6.40;100.00;100322.88;4993839;28;19918;-59
2022/11/24 03:24:16;;;;;;;;;;;;;;;6.39;100.00;100321.22;4993602;28;20436;-60
2022/11/24 03:26:41;;;;;;;;;;;;;;;6.38;100.00;100318.75;4993924;28;19937;-60
2022/11/24 03:29:07;;;;;;;;;;;;;;;6.45;100.00;100330.22;4993856;28;20328;-60
2022/11/24 03:31:33;;;;;;;;;;;;;;;6.35;100.00;100333.09;4992596;28;20428;-60
2022/11/24 03:33:58;;;;;;;;;;;;;;;6.35;100.00;100324.84;4993841;28;19913;-60
2022/11/24 03:36:23;;;;;;;;;;;;;;;6.42;100.00;100332.75;4993788;28;20300;-59
2022/11/24 03:38:48;;;;;;;;;;;;;;;6.40;100.00;100333.84;4994030;28;20375;-59
2022/11/24 03:41:14;;;;;;;;;;;;;;;6.50;100.00;100334.84;4994019;28;20516;-60
2022/11/24 03:43:39;;;;;;;;;;;;;;;6.57;100.00;100332.56;4993864;28;20003;-60
2022/11/24 03:46:04;;;;;;;;;;;;;;;6.62;100.00;100338.00;4994106;28;19918;-60
2022/11/24 03:48:29;;;;;;;;;;;;;;;6.64;100.00;100334.97;4993611;28;19918;-59
2022/11/24 03:50:56;;;;;;;;;;;;;;;6.69;100.00;100337.66;4993825;28;20297;-59
2022/11/24 03:53:22;;;;;;;;;;;;;;;6.67;100.00;100331.63;4993855;28;20329;-59
2022/11/24 03:55:47;;;;;;;;;;;;;;;6.67;100.00;100332.47;4993449;28;20290;-60
2022/11/24 03:58:13;;;;;;;;;;;;;;;6.71;100.00;100339.00;4993342;28;19913;-60
2022/11/24 04:00:38;;;;;;;;;;;;;;;6.70;100.00;100336.53;4993151;28;19920;-60
2022/11/24 04:03:03;;;;;;;;;;;;;;;6.70;100.00;100344.78;4993530;28;20369;-60
2022/11/24 04:05:28;;;;;;;;;;;;;;;6.73;100.00;100338.72;4993466;28;19980;-60
2022/11/24 04:07:55;;;;;;;;;;;;;;;6.83;100.00;100343.25;4990771;28;20375;-61
2022/11/24 04:10:20;;;;;;;;;;;;;;;6.79;100.00;100344.97;4993209;28;19914;-60
2022/11/24 04:12:45;;;;;;;;;;;;;;;6.84;100.00;100348.50;4992895;28;19921;-60
2022/11/24 04:15:12;;;;;;;;;;;;;;;6.83;100.00;100344.09;4993178;28;19914;-60
2022/11/24 04:17:37;;;;;;;;;;;;;;;6.92;100.00;100349.75;4993006;28;19925;-61
2022/11/24 04:20:02;;;;;;;;;;;;;;;6.86;100.00;100350.94;4992657;28;19922;-61
2022/11/24 04:22:28;;;;;;;;;;;;;;;6.82;100.00;100352.63;4992687;28;20349;-61
2022/11/24 04:24:53;;;;;;;;;;;;;;;6.82;100.00;100352.63;4992754;28;20396;-61
2022/11/24 04:27:18;;;;;;;;;;;;;;;6.88;100.00;100359.72;4992753;28;19920;-61
2022/11/24 04:29:43;;;;;;;;;;;;;;;6.89;100.00;100364.09;4992704;28;20313;-60
2022/11/24 04:32:09;;;;;;;;;;;;;;;6.91;100.00;100366.56;4992432;28;19917;-59
2022/11/24 04:34:34;;;;;;;;;;;;;;;7.00;100.00;100373.03;4992528;28;20015;-61
2022/11/24 04:36:59;;;;;;;;;;;;;;;7.27;100.00;100388.94;4992697;28;19924;-59
2022/11/24 04:39:24;;;;;;;;;;;;;;;7.27;100.00;100401.88;4992556;28;19945;-59
2022/11/24 04:41:50;;;;;;;;;;;;;;;7.23;100.00;100412.66;4992845;28;19918;-61
2022/11/24 04:44:15;;;;;;;;;;;;;;;7.31;100.00;100423.00;4992259;28;19917;-59
2022/11/24 04:46:40;;;;;;;;;;;;;;;7.20;100.00;100409.66;4992181;28;19968;-60
2022/11/24 04:49:05;;;;;;;;;;;;;;;7.14;100.00;100403.41;4992138;28;19914;-61
2022/11/24 04:51:30;;;;;;;;;;;;;;;7.16;100.00;100403.94;4992880;28;19957;-58
2022/11/24 04:53:56;;;;;;;;;;;;;;;6.98;100.00;100403.59;4992463;28;20018;-58
2022/11/24 04:56:21;;;;;;;;;;;;;;;6.87;100.00;100415.81;4992445;28;19918;-59
2022/11/24 04:58:47;;;;;;;;;;;;;;;6.83;100.00;100423.00;4992710;28;19918;-58
2022/11/24 05:01:12;;;;;;;;;;;;;;;6.71;100.00;100413.22;4992155;28;20385;-60
2022/11/24 05:03:38;;;;;;;;;;;;;;;6.70;100.00;100416.25;4989666;28;19913;-60
2022/11/24 05:06:04;;;;;;;;;;;;;;;6.65;100.00;100421.81;4991935;28;19921;-60
2022/11/24 05:08:29;;;;;;;;;;;;;;;6.63;100.00;100422.09;4992003;28;20266;-62
2022/11/24 05:10:54;;;;;;;;;;;;;;;6.60;100.00;100424.59;4992024;28;19964;-58
2022/11/24 05:13:20;;;;;;;;;;;;;;;6.57;100.00;100423.25;4991896;28;19917;-59
2022/11/24 05:15:45;;;;;;;;;;;;;;;6.55;100.00;100422.72;4992000;28;19918;-60
2022/11/24 05:18:11;;;;;;;;;;;;;;;6.55;100.00;100430.97;4992208;28;19976;-59
2022/11/24 05:20:37;;;;;;;;;;;;;;;6.55;100.00;100436.47;4991959;28;19928;-60
2022/11/24 05:23:03;;;;;;;;;;;;;;;6.52;100.00;100435.13;4991978;28;19913;-61
2022/11/24 05:25:28;;;;;;;;;;;;;;;6.52;100.00;100440.63;4992322;28;19941;-61
2022/11/24 05:27:54;;;;;;;;;;;;;;;6.54;100.00;100435.66;4992123;28;19969;-60
2022/11/24 05:30:19;;;;;;;;;;;;;;;6.54;100.00;100443.06;4992095;28;19914;-59
2022/11/24 05:32:44;;;;;;;;;;;;;;;6.57;100.00;100445.25;4991871;28;20357;-59
2022/11/24 05:35:09;;;;;;;;;;;;;;;6.58;100.00;100444.16;4991957;28;19921;-59
2022/11/24 05:37:35;;;;;;;;;;;;;;;6.58;100.00;100443.31;4991644;28;19913;-59
2022/11/24 05:40:01;;;;;;;;;;;;;;;6.62;100.00;100444.38;4991983;28;19993;-59
2022/11/24 05:42:41;;;;;;;;;;;;;;;6.62;100.00;100450.69;4991450;28;19914;-59
2022/11/24 05:45:17;;;;;;;;;;;;;;;6.60;100.00;100455.69;4992004;28;19914;-59
2022/11/24 05:47:42;;;;;;;;;;;;;;;6.59;100.00;100458.69;4991704;28;19918;-60
2022/11/24 05:50:08;;;;;;;;;;;;;;;6.58;100.00;100460.63;4991388;28;19929;-61
2022/11/24 05:52:34;;;;;;;;;;;;;;;6.60;100.00;100463.09;4991319;28;19925;-60
2022/11/24 05:54:59;;;;;;;;;;;;;;;6.61;100.00;100462.81;4991514;28;19913;-59
2022/11/24 05:57:24;;;;;;;;;;;;;;;6.58;100.00;100477.13;4991656;28;19918;-59
2022/11/24 05:59:49;;;;;;;;;;;;;;;6.57;100.00;100480.97;4989329;28;19925;-59
2022/11/24 06:02:14;;;;;;;;;;;;;;;6.64;100.00;100478.72;4991350;28;19945;-60
2022/11/24 06:04:40;;;;;;;;;;;;;;;6.58;100.00;100477.13;4991241;28;19917;-60
2022/11/24 06:07:06;;;;;;;;;;;;;;;6.57;100.00;100483.72;4991526;28;19918;-60
2022/11/24 06:09:31;;;;;;;;;;;;;;;6.57;100.00;100489.22;4991685;28;19921;-59
2022/11/24 06:11:56;;;;;;;;;;;;;;;6.60;100.00;100496.91;4991621;28;19914;-59
2022/11/24 06:14:21;;;;;;;;;;;;;;;6.59;100.00;100498.00;4991580;28;19918;-59
2022/11/24 06:16:47;;;;;;;;;;;;;;;6.56;100.00;100493.88;4990076;28;19964;-60
2022/11/24 06:19:12;;;;;;;;;;;;;;;6.55;100.00;100502.44;4991574;28;19918;-60
2022/11/24 06:21:37;;;;;;;;;;;;;;;6.58;100.00;100507.38;4991652;28;20024;-60
2022/11/24 06:24:03;;;;;;;;;;;;;;;6.72;100.00;100508.31;4993324;28;19918;-60
2022/11/24 06:26:28;;;;;;;;;;;;;;;6.72;100.00;100516.56;4994267;28;19913;-59
2022/11/24 06:28:53;;;;;;;;;;;;;;;6.73;100.00;100528.41;4993233;28;19917;-60
2022/11/24 06:31:18;;;;;;;;;;;;;;;6.89;100.00;100534.59;4993871;28;19913;-60
2022/11/24 06:33:44;;;;;;;;;;;;;;;6.86;100.00;100538.72;4994233;28;19973;-60
2022/11/24 06:36:11;;;;;;;;;;;;;;;6.91;100.00;100542.56;5009430;28;19914;-60
2022/11/24 06:38:36;;;;;;;;;;;;;;;6.87;100.00;100548.63;4994736;28;20381;-60
2022/11/24 06:41:06;;;;;;;;;;;;;;;6.87;100.00;100550.56;4994646;28;19928;-60
2022/11/24 06:43:31;;;;;;;;;;;;;;;7.03;100.00;100557.56;4994849;28;19918;-61
2022/11/24 06:45:56;;;;;;;;;;;;;;;6.93;100.00;100556.84;4994663;28;20387;-59
2022/11/24 06:48:23;;;;;;;;;;;;;;;6.94;100.00;100558.47;4994434;28;20462;-59
2022/11/24 06:50:48;;;;;;;;;;;;;;;6.93;100.00;100565.91;4994581;28;19925;-60
2022/11/24 06:53:14;;;;;;;;;;;;;;;6.89;100.00;100575.84;4994402;28;19914;-60
2022/11/24 06:55:39;;;;;;;;;;;;;;;6.86;100.00;100582.72;4991993;28;20059;-60
2022/11/24 06:58:05;;;;;;;;;;;;;;;6.85;100.00;100594.03;4994357;28;19920;-60
2022/11/24 07:00:33;;;;;;;;;;;;;;;6.90;100.00;100598.66;5008237;22;19921;-63
2022/11/24 07:02:58;;;;;;;;;;;;;;;6.91;100.00;100612.09;4994107;28;19917;-63
2022/11/24 07:05:23;;;;;;;;;;;;;;;6.88;100.00;100612.69;4994648;28;19983;-62
2022/11/24 07:07:48;;;;;;;;;;;;;;;6.85;100.00;100618.75;4994360;28;20378;-63
2022/11/24 07:10:14;;;;;;;;;;;;;;;6.91;100.00;100634.09;4994225;28;19917;-61
2022/11/24 07:12:39;;;;;;;;;;;;;;;6.92;100.00;100632.19;4994183;28;19918;-62
2022/11/24 07:15:04;;;;;;;;;;;;;;;6.82;100.00;100636.66;4994096;28;19918;-62
2022/11/24 07:17:30;;;;;;;;;;;;;;;6.81;100.00;100631.44;4976971;28;19922;-61
2022/11/24 07:19:55;;;;;;;;;;;;;;;6.82;100.00;100642.16;4974418;28;19914;-61
2022/11/24 07:22:20;;;;;;;;;;;;;;;6.70;100.00;100656.28;4973798;28;20359;-61
2022/11/24 07:24:45;;;;;;;;;;;;;;;6.71;100.00;100655.13;4974387;28;19965;-62
2022/11/24 07:27:11;;;;;;;;;;;;;;;6.71;100.00;100670.81;4974338;28;20307;-62
2022/11/24 07:29:36;;;;;;;;;;;;;;;6.71;100.00;100671.63;4974419;28;19964;-62
2022/11/24 07:32:01;;;;;;;;;;;;;;;6.67;100.00;100673.31;4974269;28;20227;-61
2022/11/24 07:34:26;;;;;;;;;;;;;;;6.72;100.00;100673.28;4974144;28;19914;-62
2022/11/24 07:36:52;;;;;;;;;;;;;;;6.68;100.00;100671.38;4974133;28;19968;-61
2022/11/24 07:39:17;;;;;;;;;;;;;;;6.67;100.00;100678.81;4974305;28;20384;-62
2022/11/24 07:41:42;;;;;;;;;;;;;;;6.67;100.00;100684.31;4973776;28;20413;-61
2022/11/24 07:44:07;;;;;;;;;;;;;;;6.73;100.00;100693.38;4973443;28;20429;-61
2022/11/24 07:46:32;;;;;;;;;;;;;;;6.73;100.00;100687.88;4973531;28;19921;-61
2022/11/24 07:48:58;;;;;;;;;;;;;;;6.69;100.00;100690.38;4973391;28;19914;-61
2022/11/24 07:51:23;;;;;;;;;;;;;;;6.63;100.00;100696.16;4971787;28;19918;-61
2022/11/24 07:53:48;;;;;;;;;;;;;;;6.66;100.00;100710.16;4971027;28;19921;-62
2022/11/24 07:56:13;;;;;;;;;;;;;;;6.66;100.00;100710.16;4971451;28;19925;-62
2022/11/24 07:58:39;;;;;;;;;;;;;;;6.65;100.00;100705.78;4971586;28;19914;-61
2022/11/24 08:01:11;;;;;;;;;;;;;;;6.66;100.00;100710.16;4970558;28;20012;-62
2022/11/24 08:03:36;;;;;;;;;;;;;;;6.63;100.00;100713.47;4971123;28;19977;-61
2022/11/24 08:06:01;;;;;;;;;;;;;;;6.54;100.00;100717.91;4971902;28;20393;-61
2022/11/24 08:08:27;;;;;;;;;;;;;;;6.62;100.00;100722.81;4972871;28;19925;-62
2022/11/24 08:10:53;;;;;;;;;;;;;;;6.50;100.00;100722.34;4988339;28;19922;-62
2022/11/24 08:13:18;;;;;;;;;;;;;;;6.54;100.00;100729.75;4973349;28;20366;-62
2022/11/24 08:15:43;;;;;;;;;;;;;;;6.51;100.00;100741.28;4973527;28;20412;-61
2022/11/24 08:18:09;;;;;;;;;;;;;;;6.52;100.00;100736.59;4973338;28;19918;-62
2022/11/24 08:20:34;;;;;;;;;;;;;;;6.52;100.00;100731.09;4973526;28;19918;-61
2022/11/24 08:22:59;;;;;;;;;;;;;;;6.54;100.00;100753.66;4973165;28;19996;-61
2022/11/24 08:25:30;;;;;;;;;;;;;;;6.58;100.00;100749.25;4973203;28;19914;-61
2022/11/24 08:27:55;;;;;;;;;;;;;;;6.60;100.00;100757.19;4973198;28;19914;-62
2022/11/24 08:30:20;;;;;;;;;;;;;;;6.62;100.00;100760.50;4973202;28;20429;-62
2022/11/24 08:32:46;;;;;;;;;;;;;;;6.63;100.00;100759.41;4973290;28;20334;-62
2022/11/24 08:35:11;;;;;;;;;;;;;;;6.64;100.00;100772.03;4973119;28;19914;-61
2022/11/24 08:37:36;;;;;;;;;;;;;;;6.65;100.00;100768.19;4973078;28;19913;-62
2022/11/24 08:40:01;;;;;;;;;;;;;;;6.66;100.00;100778.91;4973003;28;19914;-61
2022/11/24 08:42:27;;;;;;;;;;;;;;;6.66;100.00;100784.38;4973053;28;19921;-62
2022/11/24 08:44:52;;;;;;;;;;;;;;;6.67;100.00;100780.53;4972936;28;19914;-61
2022/11/24 08:47:17;;;;;;;;;;;;;;;6.66;100.00;100794.56;4971964;28;19918;-61
2022/11/24 08:49:42;;;;;;;;;;;;;;;6.70;100.00;100793.72;4972810;28;20318;-61
2022/11/24 08:52:08;;;;;;;;;;;;;;;6.71;100.00;100794.53;4972848;28;19994;-62
2022/11/24 08:54:33;;;;;;;;;;;;;;;6.73;100.00;100800.59;4972937;28;20314;-62
2022/11/24 08:56:58;;;;;;;;;;;;;;;6.78;100.00;100803.31;4972962;28;19964;-61
2022/11/24 08:59:23;;;;;;;;;;;;;;;6.81;100.00;100810.16;4972718;28;19929;-62
2022/11/24 09:01:49;;;;;;;;;;;;;;;6.81;100.00;100811.00;4972757;28;19977;-61
2022/11/24 09:04:14;;;;;;;;;;;;;;;6.88;100.00;100807.94;4972977;28;19929;-62
2022/11/24 09:06:39;;;;;;;;;;;;;;;6.86;100.00;100818.41;4972759;28;20263;-61
2022/11/24 09:09:05;;;;;;;;;;;;;;;6.92;100.00;100822.75;4972617;28;19918;-61
2022/11/24 09:11:32;;;;;;;;;;;;;;;6.96;100.00;100828.53;4972650;28;20392;-62
2022/11/24 09:13:57;;;;;;;;;;;;;;;6.99;100.00;100834.28;4972516;28;20290;-63
2022/11/24 09:16:24;;;;;;;;;;;;;;;7.03;100.00;100843.63;4972463;28;19914;-62
2022/11/24 09:19:00;;;;;;;;;;;;;;;7.09;100.00;100830.66;4972793;28;19950;-62
2022/11/24 09:21:25;;;;;;;;;;;;;;;7.07;100.00;100841.13;4972782;28;19914;-61
2022/11/24 09:23:51;;;;;;;;;;;;;;;7.12;100.00;100843.03;4972577;28;20378;-61
2022/11/24 09:26:27;;;;;;;;;;;;;;;7.13;100.00;100845.47;4972618;28;19914;-64
2022/11/24 09:28:53;;;;;;;;;;;;;;;7.18;100.00;100850.97;4972724;28;19915;-62
2022/11/24 09:31:19;;;;;;;;;;;;;;;7.21;100.00;100851.53;4972400;28;19941;-61
2022/11/24 09:33:45;;;;;;;;;;;;;;;7.19;100.00;100857.28;4972334;28;19918;-62
2022/11/24 09:36:11;;;;;;;;;;;;;;;7.21;100.00;100859.78;4972381;28;19914;-62
2022/11/24 09:38:36;;;;;;;;;;;;;;;7.24;100.00;100857.28;4972553;28;20405;-62
2022/11/24 09:41:13;;;;;;;;;;;;;;;7.32;100.00;100866.88;4987313;28;19925;-62
2022/11/24 09:43:54;;;;;;;;;;;;;;;7.37;100.00;100860.53;4964089;28;19918;-63
2022/11/24 09:46:24;;;;;;;;;;;;;;;7.42;100.00;100864.03;4952015;28;19947;-62
2022/11/24 09:48:52;;;;;;;;;;;;;;;7.41;100.00;100883.59;4952192;28;20346;-62
2022/11/24 09:51:21;;;;;;;;;;;;;;;7.43;100.00;100882.22;4951886;28;19922;-62
2022/11/24 09:53:53;;;;;;;;;;;;;;;7.51;100.00;100883.53;4950256;29;19915;-62
2022/11/24 09:56:20;;;;;;;;;;;;;;;7.53;100.00;100888.75;4952063;28;19979;-62
2022/11/24 09:59:01;;;;;;;;;;;;;;;7.61;100.00;100883.50;4954666;28;20306;-62
2022/11/24 10:01:31;;;;;;;;;;;;;;;7.65;100.00;100903.00;4954824;28;19929;-61
2022/11/24 10:03:56;;;;;;;;;;;;;;;7.63;100.00;100899.72;4955446;28;19921;-62
2022/11/24 10:06:23;;;;;;;;;;;;;;;7.66;100.00;100901.91;4955276;29;19918;-62
2022/11/24 10:08:59;;;;;;;;;;;;;;;7.70;100.00;100910.41;4955331;28;19919;-63
2022/11/24 10:11:35;;;;;;;;;;;;;;;7.74;100.00;100914.25;4955318;28;19918;-63
2022/11/24 10:14:06;;;;;;;;;;;;;;;7.80;100.00;100911.16;4955251;28;20389;-62
2022/11/24 10:16:36;;;;;;;;;;;;;;;7.94;100.00;100916.03;4953993;29;20012;-63
2022/11/24 10:19:13;;;;;;;;;;;;;;;7.89;100.00;100916.06;4955236;28;19925;-62
2022/11/24 10:21:50;;;;;;;;;;;;;;;7.91;100.00;100922.94;4955143;28;20354;-62
2022/11/24 10:24:34;;;;;;;;;;;;;;;7.92;100.00;100918.25;4955167;29;19958;-61
2022/11/24 10:27:01;;;;;;;;;;;;;;;7.96;100.00;100919.34;4955140;28;19953;-62
2022/11/24 10:29:35;;;;;;;;;;;;;;;7.97;100.00;100924.56;4954982;28;19914;-62
2022/11/24 10:32:02;;;;;;;;;;;;;;;8.10;100.00;100925.03;4953479;29;20390;-62
2022/11/24 10:34:28;;;;;;;;;;;;;;;8.07;100.00;100931.09;4954778;28;19918;-62
2022/11/24 10:36:57;;;;;;;;;;;;;;;8.20;100.00;100935.97;4954809;29;19929;-62
2022/11/24 10:39:31;;;;;;;;;;;;;;;8.16;100.00;100929.38;4963200;28;19914;-62
2022/11/24 10:41:59;;;;;;;;;;;;;;;8.20;100.00;100935.13;4965333;28;19953;-62
2022/11/24 10:44:24;;;;;;;;;;;;;;;8.22;100.00;100942.00;4960014;28;19918;-61
2022/11/24 10:46:50;;;;;;;;;;;;;;;8.31;100.00;100944.97;4965843;28;19918;-63
2022/11/24 10:49:18;;;;;;;;;;;;;;;8.37;100.00;100952.06;4974120;28;20641;-62
2022/11/24 10:51:43;;;;;;;;;;;;;;;8.42;100.00;100951.19;4974129;28;19918;-62
2022/11/24 10:54:13;;;;;;;;;;;;;;;8.44;100.00;100937.97;4973824;28;19992;-62
2022/11/24 10:56:40;;;;;;;;;;;;;;;8.45;100.00;100941.56;4973988;28;19922;-62
2022/11/24 10:59:20;;;;;;;;;;;;;;;8.48;100.00;100940.97;4968741;28;20303;-61
2022/11/24 11:01:45;;;;;;;;;;;;;;;8.49;100.00;100940.72;4972437;28;19957;-61
2022/11/24 11:04:17;;;;;;;;;;;;;;;8.55;100.00;100942.31;4973380;28;19984;-62
2022/11/24 11:06:42;;;;;;;;;;;;;;;8.61;100.00;100945.00;4973404;28;19926;-63
2022/11/24 11:09:07;;;;;;;;;;;;;;;8.62;100.00;100946.66;4972444;28;19914;-63
2022/11/24 11:11:34;;;;;;;;;;;;;;;8.62;100.00;100941.97;4973148;28;19964;-62
2022/11/24 11:14:00;;;;;;;;;;;;;;;8.72;100.00;100935.50;4973122;28;19925;-61
2022/11/24 11:16:28;;;;;;;;;;;;;;;8.83;100.00;100934.31;4973218;28;19917;-62
2022/11/24 11:18:54;;;;;;;;;;;;;;;8.77;100.00;100937.41;4973318;28;19925;-62
2022/11/24 11:21:27;;;;;;;;;;;;;;;8.81;100.00;100933.75;4973368;28;19918;-63
2022/11/24 11:23:52;;;;;;;;;;;;;;;8.79;100.00;100935.97;4969651;28;20386;-63
2022/11/24 11:26:23;;;;;;;;;;;;;;;8.86;100.00;100935.66;4973401;28;19926;-62
2022/11/24 11:28:59;;;;;;;;;;;;;;;8.89;100.00;100929.56;4973302;28;20437;-63
2022/11/24 11:31:25;;;;;;;;;;;;;;;8.92;100.00;100940.00;4988098;28;20358;-62
2022/11/24 11:34:08;;;;;;;;;;;;;;;8.95;100.00;100930.31;4973374;28;19925;-62
2022/11/24 11:36:34;;;;;;;;;;;;;;;8.94;100.00;100935.00;4968915;28;19961;-64
2022/11/24 11:39:01;;;;;;;;;;;;;;;8.96;100.00;100932.78;4987879;28;19921;-62
2022/11/24 11:41:29;;;;;;;;;;;;;;;9.01;100.00;100931.91;4986491;28;20574;-62
2022/11/24 11:44:03;;;;;;;;;;;;;;;9.04;100.00;100940.41;4971697;28;20412;-63
2022/11/24 11:46:29;;;;;;;;;;;;;;;9.11;100.00;100939.25;4973083;28;19925;-63
2022/11/24 11:48:55;;;;;;;;;;;;;;;9.14;100.00;100931.19;4973041;28;19922;-62
2022/11/24 11:51:38;;;;;;;;;;;;;;;9.23;100.00;100930.56;4962592;28;19925;-62
2022/11/24 11:54:03;;;;;;;;;;;;;;;9.17;99.04;100938.06;4971837;28;19926;-63
2022/11/24 11:56:31;;;;;;;;;;;;;;;9.22;98.44;100938.00;4952047;29;19918;-63
2022/11/24 11:59:11;;;;;;;;;;;;;;;9.16;99.63;100945.50;4963128;28;19914;-62
2022/11/24 12:01:36;;;;;;;;;;;;;;;9.18;97.47;100937.75;4971057;28;19925;-63
2022/11/24 12:04:20;;;;;;;;;;;;;;;9.21;98.77;100939.94;4971981;28;19918;-62
2022/11/24 12:06:53;;;;;;;;;;;;;;;9.24;99.66;100938.53;4971945;28;19917;-63
2022/11/24 12:09:38;;;;;;;;;;;;;;;9.39;98.59;100947.75;4987019;28;19917;-62
2022/11/24 12:12:03;;;;;;;;;;;;;;;9.35;96.83;100947.53;4972835;28;19924;-62
2022/11/24 12:14:42;;;;;;;;;;;;;;;9.32;96.01;100940.63;4972738;28;20001;-62
2022/11/24 12:17:08;;;;;;;;;;;;;;;9.39;97.45;100931.19;4972893;28;20016;-62
2022/11/24 12:19:36;;;;;;;;;;;;;;;9.41;97.60;100931.69;4972417;28;20370;-62
2022/11/24 12:22:26;;;;;;;;;;;;;;;9.41;96.53;100934.44;4986472;28;20262;-62
2022/11/24 12:25:12;;;;;;;;;;;;;;;9.47;97.77;100938.81;4972684;28;20012;-62
2022/11/24 12:27:47;;;;;;;;;;;;;;;9.49;98.25;100934.63;4972678;28;19929;-63
2022/11/24 12:30:17;;;;;;;;;;;;;;;9.58;97.83;100934.78;4972644;28;19921;-62
2022/11/24 12:33:01;;;;;;;;;;;;;;;9.57;97.71;100940.59;4987114;28;19917;-63
2022/11/24 12:35:38;;;;;;;;;;;;;;;9.64;97.57;100941.88;4972422;28;19920;-62
2022/11/24 12:38:17;;;;;;;;;;;;;;;9.73;96.62;100943.97;4972520;28;19918;-62